createdAt,value
2019-06-26T00:00:23.009Z,76.39
2019-06-26T00:02:53.819Z,76.16
2019-06-26T00:05:24.793Z,75.29
2019-06-26T00:07:56.773Z,76.30
2019-06-26T00:10:27.448Z,75.26
2019-06-26T00:12:58.576Z,76.56
2019-06-26T00:15:29.408Z,77.02
2019-06-26T00:18:00.231Z,77.96
2019-06-26T00:20:31.004Z,78.39
2019-06-26T00:23:02.452Z,78.37
2019-06-26T00:25:33.344Z,79.02
2019-06-26T00:28:04.625Z,78.55
2019-06-26T00:30:36.580Z,78.08
2019-06-26T00:33:07.406Z,78.00
2019-06-26T00:35:38.148Z,77.69
2019-06-26T00:38:08.953Z,77.45
2019-06-26T00:40:39.824Z,76.93
2019-06-26T00:43:10.731Z,77.84
2019-06-26T00:45:42.043Z,78.69
2019-06-26T00:48:12.717Z,77.98
2019-06-26T00:50:43.411Z,78.56
2019-06-26T00:53:14.713Z,80.03
2019-06-26T00:55:45.691Z,81.17
2019-06-26T00:58:18.226Z,81.58
2019-06-26T01:00:52.004Z,82.39
2019-06-26T01:03:22.739Z,82.60
2019-06-26T01:05:53.781Z,81.87
2019-06-26T01:08:25.625Z,81.39
2019-06-26T01:10:56.704Z,81.76
2019-06-26T01:13:28.046Z,81.82
2019-06-26T01:15:58.850Z,83.37
2019-06-26T01:18:30.175Z,83.37
2019-06-26T01:21:01.335Z,81.18
2019-06-26T01:23:32.253Z,82.31
2019-06-26T01:26:03.301Z,81.43
2019-06-26T01:28:34.725Z,80.26
2019-06-26T01:31:06.027Z,81.90
2019-06-26T01:33:37.864Z,82.31
2019-06-26T01:36:09.815Z,82.56
2019-06-26T01:38:41.148Z,83.69
2019-06-26T01:41:11.996Z,83.99
2019-06-26T01:43:43.312Z,82.70
2019-06-26T01:46:14.148Z,79.79
2019-06-26T01:48:45.118Z,83.72
2019-06-26T01:51:15.969Z,80.92
2019-06-26T01:53:46.840Z,81.05
2019-06-26T01:56:17.807Z,82.32
2019-06-26T01:58:48.623Z,81.97
2019-06-26T02:01:19.332Z,80.67
2019-06-26T02:03:50.244Z,85.27
2019-06-26T02:06:21.007Z,83.94
2019-06-26T02:08:51.944Z,84.50
2019-06-26T02:11:22.726Z,84.63
2019-06-26T02:13:53.515Z,85.72
2019-06-26T02:16:26.019Z,86.25
2019-06-26T02:19:01.534Z,86.02
2019-06-26T02:21:33.610Z,82.19
2019-06-26T02:24:04.478Z,84.07
2019-06-26T02:26:36.019Z,85.15
2019-06-26T02:29:07.140Z,86.41
2019-06-26T02:31:38.622Z,84.42
2019-06-26T02:34:09.347Z,85.32
2019-06-26T02:36:40.339Z,85.00
2019-06-26T02:39:11.319Z,82.18
2019-06-26T02:41:42.183Z,85.91
2019-06-26T02:44:13.407Z,85.18
2019-06-26T02:46:44.116Z,87.28
2019-06-26T02:49:14.841Z,86.49
2019-06-26T02:51:45.691Z,86.03
2019-06-26T02:54:16.816Z,85.84
2019-06-26T02:56:47.605Z,84.12
2019-06-26T02:59:18.335Z,82.60
2019-06-26T03:01:49.092Z,80.60
2019-06-26T03:04:19.969Z,78.96
2019-06-26T03:06:50.966Z,77.95
2019-06-26T03:09:22.529Z,76.84
2019-06-26T03:11:53.386Z,76.19
2019-06-26T03:14:24.818Z,75.56
2019-06-26T03:16:55.710Z,74.65
2019-06-26T03:19:27.280Z,71.65
2019-06-26T03:21:58.029Z,69.74
2019-06-26T03:24:28.705Z,68.30
2019-06-26T03:26:59.441Z,66.62
2019-06-26T03:29:30.325Z,65.27
2019-06-26T03:32:01.056Z,61.74
2019-06-26T03:34:32.433Z,60.61
2019-06-26T03:37:03.389Z,60.69
2019-06-26T03:39:34.407Z,60.33
2019-06-26T03:42:06.509Z,58.08
2019-06-26T03:44:38.045Z,56.23
2019-06-26T03:47:09.184Z,54.82
2019-06-26T03:49:39.921Z,54.26
2019-06-26T03:52:12.533Z,49.04
2019-06-26T03:54:43.289Z,48.05
2019-06-26T03:57:14.202Z,51.44
2019-06-26T03:59:45.364Z,50.85
2019-06-26T04:02:16.120Z,49.00
2019-06-26T04:04:46.846Z,45.86
2019-06-26T04:07:17.715Z,43.07
2019-06-26T04:09:49.377Z,42.28
2019-06-26T04:12:20.170Z,41.97
2019-06-26T04:14:51.313Z,38.47
2019-06-26T04:17:22.412Z,38.57
2019-06-26T04:19:53.150Z,40.26
2019-06-26T04:22:24.137Z,38.41
2019-06-26T04:24:56.176Z,37.06
2019-06-26T04:27:27.038Z,37.79
2019-06-26T04:29:57.756Z,37.24
2019-06-26T04:32:28.483Z,36.70
2019-06-26T04:34:59.221Z,36.75
2019-06-26T04:37:30.603Z,34.58
2019-06-26T04:40:01.254Z,33.80
2019-06-26T04:42:32.121Z,32.12
2019-06-26T04:45:03.296Z,32.13
2019-06-26T04:47:34.560Z,31.72
2019-06-26T04:50:10.128Z,30.27
2019-06-26T04:52:41.785Z,30.49
2019-06-26T04:55:14.026Z,29.67
2019-06-26T04:57:45.498Z,30.02
2019-06-26T05:00:17.367Z,30.25
2019-06-26T05:02:48.259Z,29.82
2019-06-26T05:05:19.057Z,30.30
2019-06-26T05:07:49.906Z,33.09
2019-06-26T05:10:21.989Z,33.31
2019-06-26T05:12:52.838Z,33.15
2019-06-26T05:15:23.587Z,31.81
2019-06-26T05:17:54.917Z,35.02
2019-06-26T05:20:27.077Z,37.06
2019-06-26T05:22:57.912Z,37.57
2019-06-26T05:25:28.758Z,38.16
2019-06-26T05:27:59.475Z,38.81
2019-06-26T05:30:30.361Z,41.69
2019-06-26T05:33:01.291Z,44.66
2019-06-26T05:35:35.010Z,47.31
2019-06-26T05:38:04.446Z,50.68
2019-06-26T05:40:35.191Z,52.20
2019-06-26T05:43:06.141Z,52.66
2019-06-26T05:45:36.862Z,53.33
2019-06-26T05:48:07.968Z,53.96
2019-06-26T05:50:38.688Z,53.92
2019-06-26T05:53:09.640Z,53.94
2019-06-26T05:55:40.414Z,54.48
2019-06-26T05:58:11.409Z,54.03
2019-06-26T06:00:42.245Z,53.96
2019-06-26T06:03:13.006Z,54.25
2019-06-26T06:05:45.253Z,54.77
2019-06-26T06:08:16.178Z,54.27
2019-06-26T06:10:47.225Z,54.45
2019-06-26T06:13:18.043Z,54.02
2019-06-26T06:15:49.749Z,54.00
2019-06-26T06:18:21.994Z,53.97
2019-06-26T06:20:52.924Z,53.91
2019-06-26T06:23:23.819Z,53.59
2019-06-26T06:25:55.579Z,53.81
2019-06-26T06:28:26.486Z,53.51
2019-06-26T06:30:57.549Z,53.35
2019-06-26T06:33:28.543Z,52.77
2019-06-26T06:35:59.384Z,52.55
2019-06-26T06:38:30.193Z,52.17
2019-06-26T06:41:01.179Z,52.48
2019-06-26T06:43:32.136Z,52.39
2019-06-26T06:46:03.237Z,52.08
2019-06-26T06:48:34.187Z,51.87
2019-06-26T06:51:07.642Z,51.63
2019-06-26T06:53:38.405Z,51.42
2019-06-26T06:56:09.386Z,51.23
2019-06-26T06:58:41.306Z,50.73
2019-06-26T07:01:12.161Z,50.49
2019-06-26T07:03:43.048Z,43.38
2019-06-26T07:06:14.042Z,36.70
2019-06-26T07:08:44.875Z,34.60
2019-06-26T07:11:16.680Z,32.89
2019-06-26T07:13:47.866Z,30.34
2019-06-26T07:16:19.192Z,28.75
2019-06-26T07:18:50.238Z,27.54
2019-06-26T07:21:21.474Z,27.71
2019-06-26T07:23:52.527Z,25.54
2019-06-26T07:26:23.501Z,24.60
2019-06-26T07:28:54.871Z,24.92
2019-06-26T07:31:25.511Z,23.73
2019-06-26T07:33:57.736Z,22.92
2019-06-26T07:36:28.632Z,22.82
2019-06-26T07:38:59.811Z,22.81
2019-06-26T07:41:31.186Z,21.49
2019-06-26T07:44:02.719Z,22.31
2019-06-26T07:46:34.046Z,22.39
2019-06-26T07:49:05.181Z,21.96
2019-06-26T07:51:36.020Z,22.59
2019-06-26T07:54:06.939Z,22.47
2019-06-26T07:56:37.736Z,21.70
2019-06-26T07:59:11.274Z,21.63
2019-06-26T08:01:42.198Z,21.54
2019-06-26T08:04:13.415Z,20.84
2019-06-26T08:06:48.268Z,20.11
2019-06-26T08:09:19.132Z,20.68
2019-06-26T08:11:50.031Z,20.68
2019-06-26T08:14:21.004Z,20.41
2019-06-26T08:16:52.378Z,20.35
2019-06-26T08:19:23.651Z,19.51
2019-06-26T08:21:54.506Z,20.26
2019-06-26T08:24:25.533Z,20.23
2019-06-26T08:26:56.382Z,20.48
2019-06-26T08:29:27.301Z,19.69
2019-06-26T08:31:59.892Z,20.70
2019-06-26T08:34:31.469Z,20.76
2019-06-26T08:37:02.550Z,20.71
2019-06-26T08:39:33.956Z,21.40
2019-06-26T08:42:05.286Z,19.86
2019-06-26T08:44:36.328Z,19.50
2019-06-26T08:47:07.415Z,20.63
2019-06-26T08:49:38.714Z,20.60
2019-06-26T08:52:09.680Z,20.60
2019-06-26T08:54:41.572Z,20.01
2019-06-26T08:57:13.160Z,20.29
2019-06-26T08:59:44.366Z,19.82
2019-06-26T09:02:15.300Z,19.69
2019-06-26T09:04:46.585Z,20.46
2019-06-26T09:07:17.556Z,19.55
2019-06-26T09:09:48.941Z,19.46
2019-06-26T09:12:21.073Z,19.39
2019-06-26T09:14:53.037Z,18.96
2019-06-26T09:17:24.348Z,18.81
2019-06-26T09:19:55.381Z,18.89
2019-06-26T09:22:26.530Z,18.17
2019-06-26T09:24:57.864Z,18.12
2019-06-26T09:27:29.690Z,19.07
2019-06-26T09:30:01.048Z,19.51
2019-06-26T09:32:31.998Z,18.72
2019-06-26T09:35:03.399Z,18.18
2019-06-26T09:37:35.083Z,18.73
2019-06-26T09:40:07.274Z,18.96
2019-06-26T09:42:38.182Z,19.66
2019-06-26T09:45:10.130Z,20.03
2019-06-26T09:47:41.040Z,18.94
2019-06-26T09:50:12.748Z,18.65
2019-06-26T09:52:46.065Z,18.24
2019-06-26T09:55:20.627Z,18.25
2019-06-26T09:57:51.551Z,18.61
2019-06-26T10:00:24.590Z,18.21
2019-06-26T10:02:55.499Z,17.87
2019-06-26T10:05:26.405Z,19.91
2019-06-26T10:07:57.298Z,19.60
2019-06-26T10:10:29.193Z,20.33
2019-06-26T10:13:02.119Z,19.42
2019-06-26T10:15:33.142Z,19.37
2019-06-26T10:18:05.336Z,19.51
2019-06-26T10:20:36.152Z,20.45
2019-06-26T10:23:07.271Z,19.89
2019-06-26T10:25:38.340Z,19.83
2019-06-26T10:28:09.284Z,19.13
2019-06-26T10:30:40.645Z,18.72
2019-06-26T10:33:11.557Z,19.52
2019-06-26T10:35:42.412Z,18.19
2019-06-26T10:38:13.820Z,18.35
2019-06-26T10:40:45.444Z,18.40
2019-06-26T10:43:34.842Z,17.96
2019-06-26T10:46:06.649Z,18.08
2019-06-26T10:48:37.629Z,18.69
2019-06-26T10:51:08.582Z,17.77
2019-06-26T10:53:39.533Z,18.15
2019-06-26T10:56:10.749Z,17.63
2019-06-26T10:58:44.524Z,17.94
2019-06-26T11:01:15.794Z,18.62
2019-06-26T11:03:47.636Z,17.67
2019-06-26T11:06:19.185Z,16.82
2019-06-26T11:08:50.759Z,16.86
2019-06-26T11:11:21.701Z,17.46
2019-06-26T11:13:52.852Z,17.16
2019-06-26T11:16:24.783Z,16.36
2019-06-26T11:18:56.458Z,17.04
2019-06-26T11:21:27.907Z,16.57
2019-06-26T11:23:59.101Z,17.50
2019-06-26T11:26:30.181Z,17.04
2019-06-26T11:29:01.390Z,16.74
2019-06-26T11:31:32.217Z,17.17
2019-06-26T11:34:03.577Z,16.96
2019-06-26T11:36:35.512Z,16.72
2019-06-26T11:39:07.675Z,15.56
2019-06-26T11:41:39.014Z,15.83
2019-06-26T11:44:09.785Z,15.61
2019-06-26T11:46:40.773Z,15.88
2019-06-26T11:49:12.185Z,15.60
2019-06-26T11:51:43.864Z,15.20
2019-06-26T11:54:14.899Z,15.58
2019-06-26T11:56:45.975Z,15.49
2019-06-26T11:59:17.503Z,16.03
2019-06-26T12:01:48.959Z,17.47
2019-06-26T12:04:20.963Z,16.91
2019-06-26T12:06:53.356Z,16.59
2019-06-26T12:09:24.369Z,16.28
2019-06-26T12:11:55.310Z,16.59
2019-06-26T12:14:28.506Z,16.24
2019-06-26T12:16:59.375Z,16.33
2019-06-26T12:19:30.467Z,16.30
2019-06-26T12:22:01.230Z,16.47
2019-06-26T12:24:32.526Z,16.87
2019-06-26T12:27:03.461Z,15.54
2019-06-26T12:29:34.710Z,16.60
2019-06-26T12:32:06.214Z,16.33
2019-06-26T12:34:37.278Z,16.53
2019-06-26T12:37:08.088Z,16.35
2019-06-26T12:39:38.936Z,16.61
2019-06-26T12:42:09.825Z,16.24
2019-06-26T12:44:40.921Z,16.04
2019-06-26T12:47:15.726Z,15.35
2019-06-26T12:49:46.665Z,15.68
2019-06-26T12:52:17.993Z,16.24
2019-06-26T12:54:49.873Z,15.84
2019-06-26T12:57:21.034Z,15.88
2019-06-26T12:59:57.749Z,15.77
2019-06-26T13:02:25.747Z,15.97
2019-06-26T13:04:56.646Z,16.52
2019-06-26T13:07:27.421Z,16.26
2019-06-26T13:09:58.266Z,15.91
2019-06-26T13:12:29.633Z,15.95
2019-06-26T13:15:01.776Z,16.18
2019-06-26T13:17:34.297Z,15.86
2019-06-26T13:20:10.692Z,15.94
2019-06-26T13:22:41.950Z,15.68
2019-06-26T13:25:15.766Z,15.84
2019-06-26T13:27:45.964Z,15.72
2019-06-26T13:30:32.695Z,15.98
2019-06-26T13:33:04.041Z,15.24
2019-06-26T13:35:35.333Z,14.89
2019-06-26T13:38:06.534Z,14.85
2019-06-26T13:40:40.790Z,14.73
2019-06-26T13:43:10.696Z,14.32
2019-06-26T13:45:42.334Z,14.97
2019-06-26T13:48:13.487Z,14.39
2019-06-26T13:50:44.476Z,14.80
2019-06-26T13:53:16.468Z,14.25
2019-06-26T13:55:47.348Z,14.65
2019-06-26T13:58:18.303Z,14.59
2019-06-26T14:00:49.070Z,15.72
2019-06-26T14:03:23.478Z,16.17
2019-06-26T14:06:01.658Z,15.50
2019-06-26T14:08:33.036Z,15.24
2019-06-26T14:11:07.303Z,14.89
2019-06-26T14:13:41.658Z,15.45
2019-06-26T14:16:11.351Z,16.93
2019-06-26T14:18:43.938Z,17.07
2019-06-26T14:21:24.964Z,17.22
2019-06-26T14:23:49.758Z,16.16
2019-06-26T14:26:20.895Z,16.13
2019-06-26T14:28:54.177Z,16.40
2019-06-26T14:31:25.541Z,15.65
2019-06-26T14:33:56.884Z,15.81
2019-06-26T14:36:28.288Z,15.65
2019-06-26T14:38:59.363Z,15.79
2019-06-26T14:41:30.226Z,15.33
2019-06-26T14:44:01.095Z,14.95
2019-06-26T14:46:32.424Z,17.01
2019-06-26T14:49:04.374Z,16.44
2019-06-26T14:51:43.849Z,16.72
2019-06-26T14:54:09.115Z,16.70
2019-06-26T14:56:40.534Z,16.45
2019-06-26T14:59:12.154Z,16.01
2019-06-26T15:01:43.581Z,16.53
2019-06-26T15:04:14.807Z,16.80
2019-06-26T15:06:45.820Z,17.56
2019-06-26T15:09:16.702Z,18.80
2019-06-26T15:11:47.643Z,17.88
2019-06-26T15:14:18.626Z,17.69
2019-06-26T15:16:50.813Z,18.25
2019-06-26T15:19:21.492Z,18.07
2019-06-26T15:21:58.365Z,19.22
2019-06-26T15:24:25.115Z,19.37
2019-06-26T15:26:55.944Z,19.31
2019-06-26T15:29:26.770Z,19.01
2019-06-26T15:31:57.898Z,18.23
2019-06-26T15:34:28.988Z,18.19
2019-06-26T15:37:00.136Z,18.96
2019-06-26T15:39:31.067Z,18.87
2019-06-26T15:42:01.798Z,19.58
2019-06-26T15:44:32.528Z,20.02
2019-06-26T15:47:04.982Z,19.25
2019-06-26T15:49:35.730Z,19.75
2019-06-26T15:52:14.928Z,19.20
2019-06-26T15:54:39.195Z,19.55
2019-06-26T15:57:10.146Z,20.34
2019-06-26T15:59:42.259Z,19.39
2019-06-26T16:02:13.313Z,18.89
2019-06-26T16:04:44.480Z,19.32
2019-06-26T16:07:16.390Z,19.42
2019-06-26T16:09:48.067Z,19.22
2019-06-26T16:12:19.153Z,18.52
2019-06-26T16:14:50.042Z,18.94
2019-06-26T16:17:35.634Z,18.26
2019-06-26T16:20:07.904Z,19.69
2019-06-26T16:22:40.589Z,20.27
2019-06-26T16:25:11.589Z,20.76
2019-06-26T16:27:42.529Z,21.87
2019-06-26T16:30:13.614Z,21.57
2019-06-26T16:32:44.542Z,21.57
2019-06-26T16:35:15.518Z,22.26
2019-06-26T16:37:47.434Z,22.14
2019-06-26T16:40:20.025Z,22.21
2019-06-26T16:42:51.424Z,22.01
2019-06-26T16:45:22.482Z,22.37
2019-06-26T16:47:53.337Z,22.42
2019-06-26T16:50:24.045Z,22.87
2019-06-26T16:52:54.950Z,22.87
2019-06-26T16:55:25.967Z,22.54
2019-06-26T16:57:56.841Z,21.95
2019-06-26T17:00:27.636Z,21.61
2019-06-26T17:02:58.503Z,21.78
2019-06-26T17:05:29.901Z,21.43
2019-06-26T17:08:00.634Z,21.51
2019-06-26T17:10:31.465Z,21.22
2019-06-26T17:13:04.298Z,21.42
2019-06-26T17:15:35.380Z,21.90
2019-06-26T17:18:07.054Z,22.15
2019-06-26T17:20:38.944Z,23.10
2019-06-26T17:23:10.932Z,23.09
2019-06-26T17:25:42.445Z,23.45
2019-06-26T17:28:13.751Z,23.00
2019-06-26T17:30:45.391Z,23.09
2019-06-26T17:33:17.494Z,23.43
2019-06-26T17:35:48.659Z,23.09
2019-06-26T17:38:19.341Z,23.09
2019-06-26T17:40:51.855Z,23.40
2019-06-26T17:43:25.923Z,23.45
2019-06-26T17:45:59.055Z,23.65
2019-06-26T17:48:31.297Z,23.81
2019-06-26T17:51:03.141Z,23.58
2019-06-26T17:53:34.133Z,23.66
2019-06-26T17:56:05.207Z,23.79
2019-06-26T17:58:36.110Z,24.07
2019-06-26T18:01:07.238Z,24.22
2019-06-26T18:03:39.108Z,24.51
2019-06-26T18:06:09.948Z,24.52
2019-06-26T18:08:41.229Z,24.72
2019-06-26T18:11:12.075Z,24.91
2019-06-26T18:13:42.961Z,24.97
2019-06-26T18:16:13.743Z,25.21
2019-06-26T18:18:44.864Z,25.48
2019-06-26T18:21:15.958Z,25.52
2019-06-26T18:23:47.201Z,25.99
2019-06-26T18:26:18.516Z,26.72
2019-06-26T18:28:49.475Z,26.66
2019-06-26T18:31:21.451Z,26.73
2019-06-26T18:33:52.565Z,26.95
2019-06-26T18:36:23.653Z,27.12
2019-06-26T18:38:54.530Z,27.43
2019-06-26T18:41:25.518Z,27.78
2019-06-26T18:43:56.344Z,28.61
2019-06-26T18:46:27.543Z,29.05
2019-06-26T18:48:58.811Z,29.53
2019-06-26T18:51:30.454Z,29.66
2019-06-26T18:54:04.352Z,29.97
2019-06-26T18:56:35.613Z,30.19
2019-06-26T18:59:08.063Z,30.54
2019-06-26T19:01:40.535Z,30.79
2019-06-26T19:04:13.694Z,30.92
2019-06-26T19:06:44.944Z,31.19
2019-06-26T19:09:17.414Z,31.51
2019-06-26T19:11:48.596Z,31.61
2019-06-26T19:14:19.911Z,31.82
2019-06-26T19:16:50.959Z,32.35
2019-06-26T19:19:21.951Z,32.95
2019-06-26T19:21:55.086Z,33.05
2019-06-26T19:24:26.096Z,33.49
2019-06-26T19:26:57.228Z,33.94
2019-06-26T19:29:28.109Z,34.01
2019-06-26T19:32:00.154Z,34.22
2019-06-26T19:34:31.144Z,34.30
2019-06-26T19:37:02.640Z,34.73
2019-06-26T19:39:33.602Z,34.81
2019-06-26T19:42:04.755Z,34.96
2019-06-26T19:44:35.845Z,35.19
2019-06-26T19:47:08.730Z,35.66
2019-06-26T19:49:40.202Z,36.12
2019-06-26T19:52:11.891Z,36.68
2019-06-26T19:54:43.009Z,37.13
2019-06-26T19:57:14.182Z,37.75
2019-06-26T19:59:44.827Z,38.24
2019-06-26T20:02:15.618Z,38.75
2019-06-26T20:04:48.325Z,39.17
2019-06-26T20:07:19.414Z,39.93
2019-06-26T20:09:50.398Z,40.42
2019-06-26T20:12:21.749Z,40.74
2019-06-26T20:14:52.924Z,41.31
2019-06-26T20:17:25.016Z,41.71
2019-06-26T20:19:56.871Z,42.24
2019-06-26T20:22:27.669Z,42.38
2019-06-26T20:25:01.488Z,42.83
2019-06-26T20:27:33.135Z,43.12
2019-06-26T20:30:09.419Z,43.26
2019-06-26T20:32:39.375Z,43.79
2019-06-26T20:35:10.577Z,43.79
2019-06-26T20:37:41.711Z,44.13
2019-06-26T20:40:12.798Z,44.30
2019-06-26T20:42:46.364Z,44.68
2019-06-26T20:45:17.712Z,45.10
2019-06-26T20:47:48.943Z,45.06
2019-06-26T20:50:19.734Z,45.52
2019-06-26T20:52:50.910Z,46.04
2019-06-26T20:55:21.699Z,46.02
2019-06-26T20:57:53.335Z,46.74
2019-06-26T21:00:24.412Z,46.92
2019-06-26T21:02:57.900Z,47.30
2019-06-26T21:05:29.565Z,47.52
2019-06-26T21:08:00.433Z,47.91
2019-06-26T21:10:31.304Z,48.24
2019-06-26T21:13:02.268Z,48.41
2019-06-26T21:15:34.096Z,48.77
2019-06-26T21:18:05.327Z,48.35
2019-06-26T21:20:37.090Z,48.46
2019-06-26T21:23:18.011Z,48.39
2019-06-26T21:25:40.697Z,48.71
2019-06-26T21:28:11.598Z,49.08
2019-06-26T21:30:42.943Z,49.58
2019-06-26T21:33:13.886Z,50.21
2019-06-26T21:35:45.955Z,50.28
2019-06-26T21:38:16.894Z,50.37
2019-06-26T21:40:48.119Z,50.38
2019-06-26T21:43:19.304Z,50.70
2019-06-26T21:45:51.569Z,50.97
2019-06-26T21:48:22.840Z,50.63
2019-06-26T21:50:54.036Z,50.86
2019-06-26T21:53:25.167Z,50.96
2019-06-26T21:56:14.052Z,51.10
2019-06-26T21:59:03.683Z,51.10
2019-06-26T22:01:52.461Z,51.27
2019-06-26T22:04:41.806Z,51.07
2019-06-26T22:07:29.513Z,51.32
2019-06-26T22:10:01.899Z,51.91
2019-06-26T22:12:34.448Z,52.24
2019-06-26T22:15:06.603Z,52.33
2019-06-26T22:17:39.809Z,52.54
2019-06-26T22:20:12.645Z,52.41
2019-06-26T22:22:44.913Z,52.47
2019-06-26T22:25:16.205Z,52.86
2019-06-26T22:27:47.235Z,52.96
2019-06-26T22:30:18.915Z,53.14
2019-06-26T22:32:49.646Z,53.40
2019-06-26T22:35:20.311Z,53.47
2019-06-26T22:37:50.948Z,53.45
2019-06-26T22:40:23.742Z,53.86
2019-06-26T22:42:54.749Z,53.98
2019-06-26T22:45:25.736Z,54.23
2019-06-26T22:47:56.907Z,54.57
2019-06-26T22:50:27.851Z,54.49
2019-06-26T22:52:58.816Z,54.90
2019-06-26T22:55:29.500Z,55.39
2019-06-26T22:58:00.436Z,55.48
2019-06-26T23:00:31.379Z,55.56
2019-06-26T23:03:02.382Z,55.86
2019-06-26T23:05:33.570Z,56.07
2019-06-26T23:08:04.706Z,56.08
2019-06-26T23:10:35.680Z,56.26
2019-06-26T23:13:09.476Z,56.56
2019-06-26T23:15:39.299Z,56.32
2019-06-26T23:18:10.314Z,56.45
2019-06-26T23:20:41.903Z,54.47
2019-06-26T23:23:12.878Z,54.67
2019-06-26T23:25:43.786Z,54.57
2019-06-26T23:28:14.610Z,53.88
2019-06-26T23:30:45.599Z,53.17
2019-06-26T23:33:16.488Z,53.46
2019-06-26T23:35:47.371Z,53.46
2019-06-26T23:38:18.077Z,53.80
2019-06-26T23:40:48.825Z,52.62
2019-06-26T23:43:19.633Z,52.45
2019-06-26T23:45:51.255Z,52.33
2019-06-26T23:48:22.123Z,52.21
2019-06-26T23:50:52.793Z,52.17
2019-06-26T23:53:24.021Z,51.59
2019-06-26T23:55:54.668Z,51.37
2019-06-26T23:58:25.472Z,51.04
